首页
METAR-TAF:

METAR-TAF

机场 :

巴吞鲁日, 路易斯安那州, 美国

纬度: 30-32-14N, 经度: 091-08-49W, 海拔: 21米

当前天气观测

该预报发布于58分钟前的02:53 UTC
风速4节,风向东转东北
温度 15°C
湿度 88%
气压 1017 hPa
能見度: 16.1公里
阴天层高于800英尺

METAR: KBTR 170253Z 07004KT 10SM OVC008 15/13 A3003 RMK AO2 CIG 005V010 SLP167 T01500133 53004

时间: 21:51 (03:51 UTC)

预报

该预报发布于4小时和17分钟前的23:34 UTC
预报有效从17日的 00点(UTC)到 17日的 24点(UTC)
风速5节,风向北转东北
能見度: 10公里
阴天层高于900英尺
从 17日的 0600点(UTC)
风速节,风向
能見度: 3.2公里
阴天层高于300英尺
轻雾
从 17日的 1800点(UTC)
风速5节,风向东南
能見度: 9.7公里
阴天层高于300英尺
轻雾
从 17日的 2100点(UTC)
风速5节,风向
能見度: 9.7公里
多云层高于800英尺
轻雾

TAF: KBTR 162334Z 1700/1724 03005KT P6SM OVC009 FM170600 00000KT 2SM BR OVC003 FM171800 14005KT 6SM BR OVC003 FM172100 17005KT 6SM BR BKN008

超过4000个机场的气象观测和天气预报(METAR&TAF报告)。

可查询的气象台以黄色和红色小点在地图上表示。

将鼠标移到小点上方,可查看气象台名称。

然后点击查看天气观测和预报。

如需切换地图:点击带黑十字的绿色按钮放大地图;点击带横线的绿色按钮缩小地图;或者点击绿色箭头查看邻近地区的地图。


METAR-TAF: